Poulsbo, Washington
Current Conditions -  °F | °C
As of 8:15 AM on Monday 24 Nov 2014 (Local Time) from KPWT Reporting Station
Overcast Overcast  
Wind Chill: 38°   Ceiling: 600
Heat Index: 43°   Visibility: 10mi
Dew Point: 43°   Wind: 8mph
Humidity: 100%   Direction: 180°S
Pressure: 30.34"   Gusts: NA
Location:  47.74°N, 122.65°W
Report Text: KPWT 241615Z AUTO 18007KT 10SM OVC006 06/06 A3034 RMK AO1
Loading
Personal Weather Stations






























Interactive Weather Map New forecast layout! Learn more

10-Day Weather Forecast

Advertisements
Track Severe Weather on mobile